Dades meteomassalio
Diari Summary for Febrer 11, 2017 Units:  Metric    English   Both
« Previous Day
Next Day »
Diari Semanal Mensual Anual Personalitzat
  Maxima: Minima: Mijana:
Temperatura: 9.7 °C 0.6 °C 5.3 °C
Rosada: 8.4 °C -0.7 °C 4 °C
Humitat: 94 % 84 % 91 %
Velocitat del vent: 18.5 km/h 0.0 km/h 0.6 km/h
Racha vent: 18.5 km/h - -
Vent:- - ESE
Pressio: 1018.2 hPa 1011.7 hPa -
Pluja: 1.5 mm    
Historical Graphs
 
 
Tabular Data for Febrer 11, 2017
Time Temperature Dew Point Pressure Wind Wind Speed Wind Gust Humidity Rainfall Rate (Hourly) solar Conditions
00:01 1.3 °C -0.1 °C 1018.2 hPa Calm     90 % 0.0 mm 0.0 W/m2 CLR
00:06 1.3 °C 0.0 °C 1018.2 hPa Calm     91 % 0.0 mm 0.0 W/m2 CLR
00:12 1.3 °C -0.1 °C 1018.2 hPa Calm     91 % 0.0 mm 0.0 W/m2 CLR
00:17 1.2 °C -0.3 °C 1018.2 hPa Calm     90 % 0.0 mm 0.0 W/m2 CLR
00:22 1.1 °C -0.4 °C 1018.2 hPa Calm     90 % 0.0 mm 0.0 W/m2 CLR
00:27 1.0 °C -0.3 °C 1018.2 hPa Calm     91 % 0.0 mm 0.0 W/m2 CLR
00:32 0.9 °C -0.3 °C 1018.2 hPa Calm     91 % 0.0 mm 0.0 W/m2 CLR
00:37 0.9 °C -0.4 °C 1018.2 hPa Calm     91 % 0.0 mm 0.0 W/m2 CLR
00:42 0.8 °C -0.4 °C 1018.2 hPa Calm     91 % 0.0 mm 0.0 W/m2 CLR
00:47 0.8 °C -0.4 °C 1018.2 hPa Calm     91 % 0.0 mm 0.0 W/m2 CLR
00:52 0.8 °C -0.5 °C 1018.2 hPa Calm     91 % 0.0 mm 0.0 W/m2 CLR
00:57 0.7 °C -0.6 °C 1018.2 hPa Calm     91 % 0.0 mm 0.0 W/m2 CLR
01:02 0.8 °C -0.4 °C 1018.2 hPa Calm     92 % 0.0 mm 0.0 W/m2 CLR
01:07 0.7 °C -0.6 °C 1018.2 hPa Calm     91 % 0.0 mm 0.0 W/m2 CLR
01:12 0.6 °C -0.7 °C 1018.2 hPa Calm     91 % 0.0 mm 0.0 W/m2 CLR
01:17 0.7 °C -0.5 °C 1018.2 hPa Calm     92 % 0.0 mm 0.0 W/m2 CLR
01:22 0.8 °C -0.4 °C 1018.2 hPa Calm     92 % 0.0 mm 0.0 W/m2 CLR
01:27 0.8 °C -0.3 °C 1018.2 hPa Calm     92 % 0.0 mm 0.0 W/m2 CLR
01:32 0.9 °C -0.3 °C 1018.2 hPa Calm     92 % 0.0 mm 0.0 W/m2 CLR
01:37 1.0 °C -0.2 °C 1017.8 hPa Calm     92 % 0.0 mm 0.0 W/m2 CLR
01:42 1.1 °C -0.1 °C 1017.8 hPa Calm     92 % 0.0 mm 0.0 W/m2 CLR
01:47 1.2 °C 0.1 °C 1017.8 hPa Calm     92 % 0.0 mm 0.0 W/m2 CLR
01:52 1.3 °C 0.1 °C 1017.8 hPa Calm     92 % 0.0 mm 0.0 W/m2 CLR
01:57 1.4 °C 0.2 °C 1017.8 hPa Calm     92 % 0.0 mm 0.0 W/m2 CLR
02:02 1.4 °C 0.3 °C 1017.8 hPa Calm     92 % 0.0 mm 0.0 W/m2 CLR
02:07 1.5 °C 0.3 °C 1017.8 hPa Calm     92 % 0.0 mm 0.0 W/m2 CLR
02:12 1.6 °C 0.4 °C 1017.8 hPa Calm     92 % 0.0 mm 0.0 W/m2 CLR
02:17 1.6 °C 0.4 °C 1017.8 hPa Calm     92 % 0.0 mm 0.0 W/m2 CLR
02:22 1.7 °C 0.6 °C 1017.8 hPa Calm     92 % 0.0 mm 0.0 W/m2 CLR
02:27 1.8 °C 0.7 °C 1018.2 hPa Calm     92 % 0.0 mm 0.0 W/m2 CLR
02:32 1.9 °C 0.7 °C 1018.2 hPa Calm     92 % 0.0 mm 0.0 W/m2 CLR
02:37 2.0 °C 0.8 °C 1018.2 hPa Calm     92 % 0.0 mm 0.0 W/m2 CLR
02:42 2.1 °C 0.9 °C 1018.2 hPa Calm     92 % 0.0 mm 0.0 W/m2 CLR
02:47 2.2 °C 1.1 °C 1017.8 hPa Calm     92 % 0.0 mm 0.0 W/m2 CLR
02:52 2.3 °C 1.1 °C 1017.8 hPa Calm     92 % 0.0 mm 0.0 W/m2 CLR
02:57 2.4 °C 1.2 °C 1017.8 hPa Calm     92 % 0.0 mm 0.0 W/m2 CLR
03:02 2.4 °C 1.2 °C 1017.8 hPa Calm     92 % 0.0 mm 0.0 W/m2 CLR
03:07 2.4 °C 1.3 °C 1017.8 hPa Calm     92 % 0.0 mm 0.0 W/m2 CLR
03:12 2.6 °C 1.4 °C 1017.8 hPa Calm     92 % 0.0 mm 0.0 W/m2 CLR
03:17 2.6 °C 1.4 °C 1017.8 hPa Calm     92 % 0.0 mm 0.0 W/m2 CLR
03:22 2.7 °C 1.5 °C 1017.8 hPa Calm     92 % 0.0 mm 0.0 W/m2 CLR
03:27 2.7 °C 1.6 °C 1017.8 hPa Calm     92 % 0.0 mm 0.0 W/m2 CLR
03:32 2.7 °C 1.5 °C 1017.8 hPa Calm     92 % 0.0 mm 0.0 W/m2 CLR
03:37 2.7 °C 1.4 °C 1017.8 hPa Calm     91 % 0.0 mm 0.0 W/m2 CLR
03:42 2.7 °C 1.5 °C 1017.8 hPa Calm     92 % 0.0 mm 0.0 W/m2 CLR
03:47 2.6 °C 1.4 °C 1017.8 hPa Calm     92 % 0.0 mm 0.0 W/m2 CLR
03:52 2.7 °C 1.5 °C 1017.8 hPa Calm     92 % 0.0 mm 0.0 W/m2 CLR
03:57 2.7 °C 1.5 °C 1017.5 hPa Calm     92 % 0.0 mm 0.0 W/m2 CLR
04:02 2.8 °C 1.6 °C 1017.5 hPa Calm     92 % 0.0 mm 0.0 W/m2 CLR
04:07 2.8 °C 1.7 °C 1017.5 hPa Calm     92 % 0.0 mm 0.0 W/m2 CLR
04:12 3.2 °C 2.2 °C 1017.5 hPa Calm     93 % 0.0 mm 0.0 W/m2 CLR
04:17 3.2 °C 2.1 °C 1017.5 hPa Calm     92 % 0.0 mm 0.0 W/m2 CLR
04:22 3.3 °C 2.2 °C 1017.5 hPa Calm     92 % 0.0 mm 0.0 W/m2 CLR
04:27 3.4 °C 2.2 °C 1017.5 hPa Calm     92 % 0.0 mm 0.0 W/m2 CLR
04:32 3.7 °C 2.7 °C 1017.5 hPa Calm     93 % 0.0 mm 0.0 W/m2 CLR
04:37 3.6 °C 2.4 °C 1017.5 hPa Calm     92 % 0.0 mm 0.0 W/m2 CLR
04:42 3.4 °C 2.3 °C 1017.5 hPa Calm     92 % 0.0 mm 0.0 W/m2 CLR
04:47 3.6 °C 2.6 °C 1017.5 hPa Calm     93 % 0.0 mm 0.0 W/m2 CLR
04:52 3.7 °C 2.5 °C 1017.2 hPa Calm     92 % 0.0 mm 0.0 W/m2 CLR
04:57 3.6 °C 2.4 °C 1017.2 hPa Calm     92 % 0.0 mm 0.0 W/m2 CLR
05:02 3.8 °C 2.7 °C 1017.5 hPa Calm     93 % 0.0 mm 0.0 W/m2 CLR
05:07 3.7 °C 2.6 °C 1017.5 hPa Calm     92 % 0.0 mm 0.0 W/m2 CLR
05:12 3.6 °C 2.4 °C 1017.5 hPa Calm     92 % 0.0 mm 0.0 W/m2 CLR
05:17 3.6 °C 2.4 °C 1017.5 hPa Calm     92 % 0.0 mm 0.0 W/m2 CLR
05:22 3.7 °C 2.7 °C 1017.5 hPa Calm     93 % 0.0 mm 0.0 W/m2 CLR
05:27 3.8 °C 2.7 °C 1017.5 hPa Calm     93 % 0.0 mm 0.0 W/m2 CLR
05:32 3.8 °C 2.8 °C 1017.5 hPa Calm     93 % 0.0 mm 0.0 W/m2 CLR
05:37 3.6 °C 2.3 °C 1017.5 hPa Calm     91 % 0.0 mm 0.0 W/m2 CLR
05:42 3.4 °C 2.3 °C 1017.5 hPa Calm     92 % 0.0 mm 0.0 W/m2 CLR
05:47 3.3 °C 2.1 °C 1017.5 hPa Calm     92 % 0.0 mm 0.0 W/m2 CLR
05:52 3.2 °C 2.1 °C 1017.5 hPa Calm     92 % 0.0 mm 0.0 W/m2 CLR
05:57 3.3 °C 2.1 °C 1017.5 hPa Calm     92 % 0.0 mm 0.0 W/m2 CLR
06:02 3.3 °C 2.1 °C 1017.5 hPa Calm     92 % 0.0 mm 0.0 W/m2 CLR
06:07 3.4 °C 2.4 °C 1017.5 hPa Calm     93 % 0.0 mm 0.0 W/m2 CLR
06:12 3.6 °C 2.6 °C 1017.2 hPa Calm     93 % 0.0 mm 0.0 W/m2 CLR
06:17 3.6 °C 2.6 °C 1017.5 hPa Calm     93 % 0.0 mm 0.0 W/m2 CLR
06:22 3.6 °C 2.6 °C 1017.2 hPa Calm     93 % 0.0 mm 0.0 W/m2 CLR
06:27 3.4 °C 2.3 °C 1017.2 hPa Calm     92 % 0.0 mm 0.0 W/m2 CLR
06:32 3.4 °C 2.3 °C 1017.2 hPa Calm     92 % 0.0 mm 0.0 W/m2 CLR
06:37 3.6 °C 2.6 °C 1017.2 hPa Calm     93 % 0.0 mm 0.0 W/m2 CLR
06:42 3.7 °C 2.7 °C 1017.2 hPa Calm     93 % 0.0 mm 0.0 W/m2 CLR
06:47 3.6 °C 2.6 °C 1017.2 hPa Calm     93 % 0.0 mm 0.0 W/m2 CLR
06:52 3.3 °C 2.1 °C 1017.5 hPa Calm     92 % 0.0 mm 0.0 W/m2 CLR
06:57 3.2 °C 2.0 °C 1017.2 hPa Calm     92 % 0.0 mm 0.0 W/m2 CLR
07:03 3.2 °C 2.2 °C 1017.2 hPa Calm     93 % 0.0 mm 0.0 W/m2 CLR
07:08 3.2 °C 2.2 °C 1017.2 hPa Calm     93 % 0.0 mm 0.0 W/m2 CLR
07:13 3.2 °C 2.2 °C 1017.5 hPa Calm     93 % 0.0 mm 0.0 W/m2 CLR
07:18 3.2 °C 2.2 °C 1017.5 hPa Calm     93 % 0.0 mm 0.0 W/m2 CLR
07:23 3.1 °C 1.9 °C 1017.5 hPa Calm     92 % 0.0 mm 0.0 W/m2 CLR
07:28 2.9 °C 1.8 °C 1017.5 hPa Calm     92 % 0.0 mm 0.0 W/m2 CLR
07:33 2.9 °C 1.7 °C 1017.5 hPa Calm     92 % 0.0 mm 0.0 W/m2 CLR
07:38 2.8 °C 1.8 °C 1017.5 hPa Calm     93 % 0.0 mm 0.0 W/m2 CLR
07:43 2.8 °C 1.6 °C 1017.5 hPa Calm     92 % 0.0 mm 0.0 W/m2 CLR
07:48 2.8 °C 1.8 °C 1017.8 hPa Calm     93 % 0.0 mm 0.0 W/m2 CLR
07:53 2.8 °C 1.8 °C 1017.8 hPa Calm     93 % 0.0 mm 0.0 W/m2 OVC
07:58 2.9 °C 1.9 °C 1017.8 hPa Calm     93 % 0.0 mm 0.0 W/m2 OVC
08:03 2.9 °C 1.9 °C 1017.8 hPa Calm     93 % 0.0 mm 0.0 W/m2 OVC
08:08 2.9 °C 1.9 °C 1017.8 hPa Calm     93 % 0.0 mm 0.0 W/m2 OVC
08:13 3.0 °C 2.0 °C 1017.8 hPa Calm     93 % 0.0 mm 5.0 W/m2 OVC
08:18 3.1 °C 2.1 °C 1017.8 hPa Calm     93 % 0.0 mm 7.0 W/m2 BKN
08:23 3.1 °C 2.1 °C 1017.8 hPa Calm     93 % 0.0 mm 7.0 W/m2 BKN
08:28 3.2 °C 2.2 °C 1017.8 hPa Calm     93 % 0.0 mm 5.0 W/m2 OVC
08:33 3.2 °C 2.2 °C 1017.8 hPa Calm     93 % 0.0 mm 7.0 W/m2 OVC
08:38 3.3 °C 2.3 °C 1017.8 hPa Calm     93 % 0.0 mm 9.0 W/m2 BKN
08:43 3.4 °C 2.4 °C 1017.8 hPa Calm     93 % 0.0 mm 12.0 W/m2 BKN
08:48 3.4 °C 2.4 °C 1017.8 hPa Calm     93 % 0.0 mm 16.0 W/m2 BKN
08:53 3.5 °C 2.5 °C 1017.8 hPa Calm     93 % 0.0 mm 16.0 W/m2 BKN
08:58 3.6 °C 2.6 °C 1017.8 hPa Calm     93 % 0.0 mm 25.0 W/m2 BKN
09:03 3.7 °C 2.7 °C 1017.8 hPa Calm     93 % 0.0 mm 32.0 W/m2 BKN
09:08 3.7 °C 2.7 °C 1017.8 hPa Calm     93 % 0.0 mm 35.0 W/m2 BKN
09:13 3.8 °C 2.7 °C 1017.8 hPa Calm     93 % 0.0 mm 40.0 W/m2 BKN
09:18 3.9 °C 2.8 °C 1017.8 hPa Calm     93 % 0.0 mm 51.0 W/m2 BKN
09:23 3.9 °C 2.9 °C 1017.8 hPa Calm     93 % 0.0 mm 65.0 W/m2 SCT
09:28 4.0 °C 2.9 °C 1017.8 hPa Calm     93 % 0.0 mm 72.0 W/m2 SCT
09:33 4.1 °C 3.0 °C 1017.8 hPa Calm     93 % 0.0 mm 70.0 W/m2 FEW
09:38 4.2 °C 3.1 °C 1017.8 hPa Calm     93 % 0.0 mm 46.0 W/m2 FEW
09:43 4.2 °C 3.2 °C 1017.8 hPa Calm     93 % 0.0 mm 62.0 W/m2 SCT
09:48 4.3 °C 3.3 °C 1017.8 hPa Calm     93 % 0.0 mm 65.0 W/m2 SCT
09:53 4.4 °C 3.4 °C 1017.8 hPa Calm     93 % 0.0 mm 51.0 W/m2 SCT
09:58 4.6 °C 3.5 °C 1017.8 hPa Calm     93 % 0.0 mm 54.0 W/m2 SCT
10:03 4.6 °C 3.6 °C 1017.8 hPa Calm     93 % 0.0 mm 70.0 W/m2 SCT
10:08 4.8 °C 3.7 °C 1017.8 hPa Calm     93 % 0.0 mm 104.0 W/m2 FEW
10:13 4.9 °C 3.8 °C 1017.8 hPa Calm     93 % 0.0 mm 127.0 W/m2 CLR
10:18 5.0 °C 3.9 °C 1017.8 hPa Calm     93 % 0.0 mm 142.0 W/m2 CLR
10:23 5.1 °C 4.1 °C 1017.5 hPa Calm     93 % 0.0 mm 144.0 W/m2 CLR
10:28 5.3 °C 4.2 °C 1017.5 hPa Calm     93 % 0.0 mm 142.0 W/m2 CLR
10:33 5.3 °C 4.3 °C 1017.5 hPa Calm     93 % 0.0 mm 86.0 W/m2 CLR
10:38 5.4 °C 4.3 °C 1017.5 hPa Calm     93 % 0.0 mm 54.0 W/m2 FEW
10:43 5.4 °C 4.2 °C 1017.8 hPa Calm     92 % 0.0 mm 70.0 W/m2 SCT
10:48 5.5 °C 4.3 °C 1017.8 hPa Calm     92 % 0.0 mm 123.0 W/m2 FEW
10:53 5.6 °C 4.4 °C 1017.8 hPa Calm     92 % 0.0 mm 104.0 W/m2 CLR
10:58 5.7 °C 4.4 °C 1017.8 hPa Calm     92 % 0.0 mm 160.0 W/m2 CLR
11:03 5.8 °C 4.6 °C 1017.8 hPa Calm     92 % 0.0 mm 174.0 W/m2 CLR
11:08 6.1 °C 4.9 °C 1017.8 hPa Calm     92 % 0.0 mm 121.0 W/m2 CLR
11:13 6.3 °C 5.1 °C 1017.8 hPa Calm     92 % 0.0 mm 49.0 W/m2 CLR
11:18 6.3 °C 4.9 °C 1017.8 hPa Calm     91 % 0.0 mm 39.0 W/m2 SCT
11:23 6.3 °C 4.9 °C 1017.8 hPa Calm     91 % 0.0 mm 35.0 W/m2 BKN
11:28 6.4 °C 5.0 °C 1017.5 hPa Calm     91 % 0.0 mm 40.0 W/m2 BKN
11:33 6.4 °C 4.9 °C 1017.5 hPa Calm     90 % 0.0 mm 44.0 W/m2 BKN
11:38 6.4 °C 4.9 °C 1017.5 hPa Calm     90 % 0.0 mm 44.0 W/m2 BKN
11:43 6.4 °C 4.9 °C 1017.5 hPa Calm     90 % 0.0 mm 46.0 W/m2 BKN
11:48 6.4 °C 4.9 °C 1017.5 hPa Calm     90 % 0.0 mm 49.0 W/m2 SCT
11:53 6.4 °C 4.9 °C 1017.5 hPa Calm     90 % 0.0 mm 58.0 W/m2 SCT
11:58 6.3 °C 4.8 °C 1017.5 hPa Calm     90 % 0.0 mm 53.0 W/m2 SCT
12:03 6.4 °C 4.7 °C 1017.2 hPa Calm     89 % 0.0 mm 139.0 W/m2 FEW
12:08 6.4 °C 4.8 °C 1017.2 hPa Calm     89 % 0.0 mm 172.0 W/m2 CLR
12:13 6.6 °C 4.9 °C 1017.2 hPa Calm     89 % 0.0 mm 102.0 W/m2 CLR
12:18 6.6 °C 4.8 °C 1017.5 hPa Calm     88 % 0.0 mm 137.0 W/m2 CLR
12:23 6.7 °C 4.9 °C 1017.2 hPa Calm     88 % 0.0 mm 169.0 W/m2 CLR
12:28 6.8 °C 5.0 °C 1017.2 hPa Calm     88 % 0.0 mm 137.0 W/m2 CLR
12:33 6.9 °C 4.9 °C 1017.2 hPa Calm     87 % 0.0 mm 113.0 W/m2 CLR
12:38 7.1 °C 5.1 °C 1016.8 hPa Calm     87 % 0.0 mm 102.0 W/m2 CLR
12:43 7.1 °C 5.1 °C 1016.8 hPa Calm     87 % 0.0 mm 111.0 W/m2 CLR
16:00 7.7 °C 5.5 °C 1014.4 hPa Calm     86 % 0.0 mm 62.0 W/m2 SCT
16:05 7.7 °C 5.5 °C 1014.4 hPa Calm     86 % 0.0 mm 100.0 W/m2 FEW
16:10 7.8 °C 5.6 °C 1014.4 hPa Calm     86 % 0.0 mm 111.0 W/m2 CLR
16:15 7.8 °C 5.6 °C 1014.1 hPa Calm     86 % 0.0 mm 84.0 W/m2 CLR
16:20 7.9 °C 5.5 °C 1014.1 hPa Calm     85 % 0.0 mm 81.0 W/m2 CLR
16:25 8.0 °C 5.6 °C 1014.1 hPa Calm     85 % 0.0 mm 84.0 W/m2 FEW
16:30 8.1 °C 5.7 °C 1014.1 hPa Calm     85 % 0.0 mm 60.0 W/m2 FEW
16:35 8.1 °C 5.7 °C 1014.1 hPa Calm     85 % 0.0 mm 77.0 W/m2 FEW
16:40 8.2 °C 5.8 °C 1013.8 hPa Calm     85 % 0.0 mm 90.0 W/m2 FEW
16:45 8.3 °C 5.9 °C 1014.1 hPa Calm     85 % 0.0 mm 91.0 W/m2 CLR
16:50 8.3 °C 5.9 °C 1013.8 hPa Calm     85 % 0.0 mm 93.0 W/m2 CLR
16:55 8.4 °C 5.8 °C 1013.8 hPa Calm     84 % 0.0 mm 74.0 W/m2 CLR
17:00 8.4 °C 5.9 °C 1013.4 hPa NNE 1.9 km/h   84 % 0.0 mm 90.0 W/m2 FEW
17:05 8.4 °C 5.9 °C 1013.4 hPa Calm     84 % 0.0 mm 105.0 W/m2 CLR
17:10 8.4 °C 5.9 °C 1013.4 hPa Calm     84 % 0.0 mm 86.0 W/m2 CLR
17:15 8.4 °C 5.9 °C 1013.4 hPa Calm     84 % 0.0 mm 70.0 W/m2 CLR
17:20 8.5 °C 5.9 °C 1013.4 hPa Calm     84 % 0.0 mm 63.0 W/m2 FEW
17:25 8.5 °C 5.9 °C 1013.4 hPa Calm     84 % 0.0 mm 77.0 W/m2 SCT
17:30 8.5 °C 6.1 °C 1013.4 hPa Calm     85 % 0.0 mm 72.0 W/m2 FEW
17:35 8.6 °C 6.0 °C 1013.1 hPa Calm     84 % 0.0 mm 65.0 W/m2 SCT
17:40 8.6 °C 6.0 °C 1013.1 hPa Calm     84 % 0.0 mm 56.0 W/m2 SCT
17:45 8.5 °C 6.1 °C 1013.1 hPa Calm     85 % 0.0 mm 44.0 W/m2 SCT
17:50 8.4 °C 6.0 °C 1013.1 hPa Calm     85 % 0.0 mm 42.0 W/m2 BKN
17:56 8.3 °C 5.9 °C 1013.1 hPa Calm     85 % 0.0 mm 39.0 W/m2 BKN
18:01 8.3 °C 5.9 °C 1013.1 hPa Calm     85 % 0.0 mm 33.0 W/m2 BKN
18:06 8.3 °C 5.9 °C 1013.1 hPa Calm     85 % 0.0 mm 26.0 W/m2 BKN
18:11 8.3 °C 6.1 °C 1013.1 hPa Calm     86 % 0.0 mm 21.0 W/m2 BKN
18:16 8.2 °C 6.0 °C 1013.1 hPa Calm     86 % 0.0 mm 12.0 W/m2 BKN
18:21 8.2 °C 5.9 °C 1013.4 hPa Calm     86 % 0.0 mm 5.0 W/m2 BKN
18:26 8.1 °C 5.9 °C 1013.4 hPa Calm     86 % 0.0 mm 0.0 W/m2 OVC
18:31 8.1 °C 6.0 °C 1013.4 hPa Calm     87 % 0.0 mm 0.0 W/m2 OVC
18:36 8.0 °C 5.9 °C 1013.4 hPa Calm     87 % 0.0 mm 0.0 W/m2 OVC
18:41 7.9 °C 5.9 °C 1013.8 hPa Calm     87 % 0.5 mm 0.0 W/m2 RA
18:46 7.9 °C 6.0 °C 1013.4 hPa Calm     88 % 0.5 mm 0.0 W/m2 RA
18:51 7.9 °C 6.0 °C 1013.4 hPa Calm     88 % 0.8 mm 0.0 W/m2 RA
18:56 7.8 °C 6.1 °C 1013.4 hPa Calm     89 % 0.8 mm 0.0 W/m2 CLR
19:01 7.8 °C 6.1 °C 1013.4 hPa Calm     89 % 0.8 mm 0.0 W/m2 CLR
19:06 7.7 °C 6.2 °C 1013.4 hPa Calm     90 % 1.0 mm 0.0 W/m2 RA
19:11 7.6 °C 6.1 °C 1013.4 hPa Calm     90 % 1.0 mm 0.0 W/m2
19:16 7.6 °C 6.0 °C 1013.4 hPa Calm     90 % 1.0 mm 0.0 W/m2 CLR
19:21 7.5 °C 6.1 °C 1013.4 hPa Calm     91 % 1.3 mm 0.0 W/m2 RA
19:26 7.4 °C 6.0 °C 1013.4 hPa NNE 6.4 km/h 6.4 km/h 91 % 1.3 mm 0.0 W/m2 CLR
19:31 7.3 °C 5.9 °C 1013.4 hPa Calm     91 % 1.3 mm 0.0 W/m2 CLR
19:36 7.3 °C 6.1 °C 1013.4 hPa NNE 5.6 km/h 5.6 km/h 92 % 1.3 mm 0.0 W/m2 CLR
19:41 7.3 °C 6.1 °C 1013.4 hPa North 3.7 km/h   92 % 0.8 mm 0.0 W/m2 CLR
19:46 7.4 °C 6.2 °C 1013.4 hPa Calm     92 % 0.5 mm 0.0 W/m2 CLR
19:51 7.4 °C 6.2 °C 1013.4 hPa Calm     92 % 0.5 mm 0.0 W/m2 CLR
19:56 7.4 °C 6.2 °C 1013.1 hPa Calm     92 % 0.5 mm 0.0 W/m2 CLR
20:01 7.4 °C 6.2 °C 1013.1 hPa Calm     92 % 0.5 mm 0.0 W/m2 CLR
20:06 7.4 °C 6.2 °C 1013.1 hPa Calm     92 % 0.3 mm 0.0 W/m2 CLR
20:11 7.3 °C 6.1 °C 1013.1 hPa Calm     92 % 0.3 mm 0.0 W/m2 CLR
20:16 7.3 °C 6.1 °C 1013.1 hPa Calm     92 % 0.3 mm 0.0 W/m2 CLR
20:21 7.3 °C 6.2 °C 1013.1 hPa Calm     93 % 0.0 mm 0.0 W/m2 CLR
20:26 7.4 °C 6.3 °C 1013.1 hPa Calm     93 % 0.0 mm 0.0 W/m2 CLR
20:31 7.3 °C 6.3 °C 1013.1 hPa North 5.6 km/h 5.6 km/h 93 % 0.0 mm 0.0 W/m2 CLR
20:36 7.4 °C 6.3 °C 1013.1 hPa Calm     93 % 0.0 mm 0.0 W/m2 CLR
20:41 7.3 °C 6.2 °C 1013.1 hPa Calm     93 % 0.0 mm 0.0 W/m2 CLR
20:46 7.2 °C 6.1 °C 1013.1 hPa Calm     93 % 0.0 mm 0.0 W/m2 CLR
20:51 7.2 °C 6.1 °C 1012.8 hPa Calm     93 % 0.0 mm 0.0 W/m2 CLR
20:56 7.2 °C 6.1 °C 1012.8 hPa Calm     93 % 0.0 mm 0.0 W/m2 CLR
21:01 7.3 °C 6.3 °C 1012.8 hPa Calm     93 % 0.0 mm 0.0 W/m2 CLR
21:06 7.2 °C 6.1 °C 1013.1 hPa Calm     93 % 0.0 mm 0.0 W/m2 CLR
21:11 7.2 °C 6.1 °C 1012.8 hPa Calm     93 % 0.0 mm 0.0 W/m2 CLR
21:16 7.7 °C 6.7 °C 1012.8 hPa Calm     93 % 0.0 mm 0.0 W/m2 CLR
21:21 8.1 °C 7.2 °C 1012.4 hPa ENE 5.6 km/h 5.6 km/h 94 % 0.0 mm 0.0 W/m2 CLR
21:26 8.6 °C 7.7 °C 1012.4 hPa ENE 9.3 km/h 9.3 km/h 94 % 0.0 mm 0.0 W/m2 CLR
21:31 8.7 °C 7.8 °C 1012.4 hPa East 5.6 km/h 5.6 km/h 94 % 0.0 mm 0.0 W/m2 CLR
21:36 8.3 °C 7.2 °C 1012.4 hPa Calm   0.5 km/h 93 % 0.0 mm 0.0 W/m2 CLR
21:41 8.6 °C 7.5 °C 1012.8 hPa ESE 6.4 km/h 6.4 km/h 93 % 0.0 mm 0.0 W/m2 CLR
21:46 9.1 °C 8.0 °C 1012.8 hPa East 7.4 km/h 7.4 km/h 93 % 0.3 mm 0.0 W/m2 RA
21:51 9.3 °C 8.3 °C 1012.8 hPa East 7.4 km/h 7.4 km/h 93 % 0.3 mm 0.0 W/m2 CLR
21:56 9.4 °C 8.4 °C 1012.8 hPa East 5.6 km/h 5.6 km/h 93 % 0.3 mm 0.0 W/m2 CLR
22:01 9.5 °C 8.4 °C 1012.8 hPa Calm     93 % 0.3 mm 0.0 W/m2 CLR
22:06 9.5 °C 8.4 °C 1012.8 hPa Calm     93 % 0.3 mm 0.0 W/m2 CLR
22:11 9.4 °C 8.2 °C 1012.4 hPa Calm     92 % 0.3 mm 0.0 W/m2 CLR
22:16 9.3 °C 8.1 °C 1012.4 hPa Calm     92 % 0.3 mm 0.0 W/m2 CLR
22:21 9.3 °C 8.3 °C 1012.4 hPa Calm     93 % 0.3 mm 0.0 W/m2 CLR
22:26 9.4 °C 8.4 °C 1012.4 hPa Calm     93 % 0.3 mm 0.0 W/m2 CLR
22:31 9.5 °C 8.3 °C 1012.4 hPa Calm     92 % 0.3 mm 0.0 W/m2 CLR
22:36 9.4 °C 8.2 °C 1012.4 hPa Calm     92 % 0.3 mm 0.0 W/m2 CLR
22:41 9.5 °C 8.3 °C 1012.4 hPa Calm     92 % 0.3 mm 0.0 W/m2 CLR
22:46 9.4 °C 8.2 °C 1012.4 hPa Calm     92 % 0.0 mm 0.0 W/m2 CLR
22:51 9.3 °C 8.1 °C 1012.4 hPa Calm     92 % 0.0 mm 0.0 W/m2 CLR
22:56 9.3 °C 8.1 °C 1012.4 hPa Calm     92 % 0.0 mm 0.0 W/m2 CLR
23:01 9.3 °C 8.1 °C 1012.4 hPa Calm     92 % 0.0 mm 0.0 W/m2 CLR
23:06 9.3 °C 8.1 °C 1012.4 hPa ENE 4.8 km/h 4.8 km/h 92 % 0.0 mm 0.0 W/m2 CLR
23:11 9.4 °C 8.2 °C 1012.4 hPa ENE 5.6 km/h   92 % 0.0 mm 0.0 W/m2 CLR
23:16 9.4 °C 8.2 °C 1012.4 hPa Calm     92 % 0.0 mm 0.0 W/m2 CLR
23:21 9.5 °C 8.3 °C 1012.4 hPa ENE 5.6 km/h   92 % 0.0 mm 0.0 W/m2 CLR
23:26 9.6 °C 8.4 °C 1012.1 hPa East 7.4 km/h 7.4 km/h 92 % 0.0 mm 0.0 W/m2 CLR
23:31 9.7 °C 8.3 °C 1012.1 hPa East 5.6 km/h 5.6 km/h 91 % 0.0 mm 0.0 W/m2 CLR
23:36 9.7 °C 8.3 °C 1012.1 hPa East 6.4 km/h 6.4 km/h 91 % 0.0 mm 0.0 W/m2 CLR
23:41 9.7 °C 8.3 °C 1012.1 hPa East 13.0 km/h 13.0 km/h 91 % 0.0 mm 0.0 W/m2 CLR
23:46 9.7 °C 8.3 °C 1011.7 hPa East 5.6 km/h 5.6 km/h 91 % 0.0 mm 0.0 W/m2 CLR
23:51 9.6 °C 8.2 °C 1012.1 hPa East 9.7 km/h 9.7 km/h 91 % 0.0 mm 0.0 W/m2 CLR
23:56 9.7 °C 8.3 °C 1011.7 hPa ESE 18.5 km/h 18.5 km/h 91 % 0.0 mm 0.0 W/m2 CLR
Lo Temps de Massalio
Compliments of Weather Underground - 1 mb